Elk City, Idaho
Current Conditions -  °F | °C
As of 1:35 AM on Sunday 23 Nov 2014 (Local Time) from KGIC Reporting Station
Overcast Overcast  
Wind Chill: 26°   Ceiling: 4500
Heat Index: 34°   Visibility: 10mi
Dew Point: 27°   Wind: 9mph
Humidity: 77%   Direction: 230°SW
Pressure: 30.12"   Gusts: NA
Location:  45.83°N, 115.44°W
Report Text: KGIC 230935Z AUTO 23008KT 10SM OVC045 01/M03 A3012 RMK AO1 T00101026
Loading
Personal Weather Stations






























Interactive Weather Map New forecast layout! Learn more

10-Day Weather Forecast

Advertisements
Track Severe Weather on mobile